createdAt,value
2019-02-05T00:02:26.620Z,13.90
2019-02-05T00:05:00.194Z,12.77
2019-02-05T00:07:31.723Z,12.28
2019-02-05T00:10:06.329Z,11.35
2019-02-05T00:12:40.096Z,11.43
2019-02-05T00:15:13.130Z,11.33
2019-02-05T00:17:46.119Z,12.50
2019-02-05T00:20:18.062Z,12.90
2019-02-05T00:22:49.367Z,11.87
2019-02-05T00:25:20.609Z,12.90
2019-02-05T00:27:54.236Z,13.23
2019-02-05T00:30:28.146Z,12.27
2019-02-05T00:33:03.701Z,13.40
2019-02-05T00:35:37.090Z,14.55
2019-02-05T00:38:10.205Z,12.83
2019-02-05T00:40:41.448Z,13.57
2019-02-05T00:43:15.148Z,13.20
2019-02-05T00:45:49.132Z,13.70
2019-02-05T00:48:23.193Z,14.17
2019-02-05T00:50:59.213Z,13.07
2019-02-05T00:53:31.169Z,12.90
2019-02-05T00:56:05.468Z,13.77
2019-02-05T00:58:38.393Z,14.97
2019-02-05T01:01:15.330Z,14.95
2019-02-05T01:03:46.436Z,14.77
2019-02-05T01:06:19.799Z,14.53
2019-02-05T01:08:51.161Z,14.47
2019-02-05T01:11:23.256Z,14.07
2019-02-05T01:13:58.104Z,15.13
2019-02-05T01:16:30.402Z,14.13
2019-02-05T01:19:03.411Z,15.23
2019-02-05T01:21:37.410Z,15.13
2019-02-05T01:24:12.985Z,16.00
2019-02-05T01:26:45.441Z,16.12
2019-02-05T01:29:19.437Z,16.00
2019-02-05T01:31:55.086Z,14.77
2019-02-05T01:34:27.413Z,14.77
2019-02-05T01:37:02.069Z,15.27
2019-02-05T01:39:36.054Z,15.03
2019-02-05T01:42:08.373Z,13.43
2019-02-05T01:44:42.392Z,16.63
2019-02-05T01:47:16.402Z,15.37
2019-02-05T01:49:50.517Z,14.98
2019-02-05T01:52:21.759Z,16.45
2019-02-05T01:54:55.444Z,15.83
2019-02-05T01:57:29.505Z,17.23
2019-02-05T02:00:04.080Z,16.48
2019-02-05T02:02:37.583Z,16.52
2019-02-05T02:05:10.392Z,15.00
2019-02-05T02:07:42.129Z,14.73
2019-02-05T02:10:16.568Z,14.17
2019-02-05T02:12:49.658Z,14.90
2019-02-05T02:15:23.660Z,15.32
2019-02-05T02:17:57.759Z,14.07
2019-02-05T02:20:31.347Z,15.00
2019-02-05T02:23:02.625Z,16.27
2019-02-05T02:25:33.925Z,15.60
2019-02-05T02:28:07.552Z,14.63
2019-02-05T02:30:41.676Z,14.80
2019-02-05T02:33:14.656Z,14.80
2019-02-05T02:35:49.813Z,14.00
2019-02-05T02:38:22.787Z,15.25
2019-02-05T02:40:54.053Z,14.67
2019-02-05T02:43:27.630Z,14.63
2019-02-05T02:46:01.740Z,14.50
2019-02-05T02:48:34.741Z,14.47
2019-02-05T02:51:06.869Z,13.40
2019-02-05T02:53:38.152Z,13.40
2019-02-05T02:56:10.816Z,13.33
2019-02-05T02:58:43.813Z,13.70
2019-02-05T03:01:15.894Z,12.95
2019-02-05T03:03:47.324Z,15.03
2019-02-05T03:06:20.804Z,12.07
2019-02-05T03:08:56.459Z,11.80
2019-02-05T03:11:28.819Z,12.98
2019-02-05T03:14:02.792Z,12.10
2019-02-05T03:16:34.953Z,12.03
2019-02-05T03:19:06.909Z,13.20
2019-02-05T03:21:40.173Z,12.40
2019-02-05T03:24:11.811Z,12.40
2019-02-05T03:26:45.903Z,11.80
2019-02-05T03:29:17.916Z,12.77
2019-02-05T03:31:51.104Z,12.03
2019-02-05T03:34:25.028Z,12.17
2019-02-05T03:36:58.965Z,11.70
2019-02-05T03:39:31.824Z,12.93
2019-02-05T03:42:04.090Z,11.53
2019-02-05T03:44:37.883Z,12.07
2019-02-05T03:47:12.690Z,12.70
2019-02-05T03:49:46.208Z,12.80
2019-02-05T03:52:21.557Z,11.53
2019-02-05T03:55:44.280Z,12.00
2019-02-05T03:58:36.370Z,11.07
2019-02-05T04:01:43.525Z,11.33
2019-02-05T04:04:51.015Z,12.63
2019-02-05T04:08:17.164Z,10.70
2019-02-05T04:11:35.523Z,10.70
2019-02-05T04:15:01.394Z,9.90
2019-02-05T04:18:05.831Z,10.28
2019-02-05T04:21:14.888Z,10.90
2019-02-05T04:24:39.921Z,10.83
2019-02-05T04:27:47.718Z,11.03
2019-02-05T04:30:40.505Z,13.63
2019-02-05T04:34:04.473Z,12.20
2019-02-05T04:37:11.761Z,12.17
2019-02-05T04:40:16.903Z,11.90
2019-02-05T04:43:49.527Z,12.27
2019-02-05T04:46:36.188Z,12.50
2019-02-05T04:50:22.852Z,11.80
2019-02-05T04:53:42.374Z,12.47
2019-02-05T04:56:27.337Z,10.67
2019-02-05T04:59:33.797Z,9.83
2019-02-05T05:02:31.552Z,11.00
2019-02-05T05:05:37.004Z,10.77
2019-02-05T05:08:37.650Z,10.03
2019-02-05T05:11:10.506Z,10.47
2019-02-05T05:13:42.388Z,9.70
2019-02-05T05:16:15.389Z,10.73
2019-02-05T05:18:46.656Z,10.23
2019-02-05T05:21:20.748Z,10.13
2019-02-05T05:23:54.352Z,10.68
2019-02-05T05:26:25.617Z,10.30
2019-02-05T05:28:57.464Z,10.40
2019-02-05T05:31:31.530Z,10.90
2019-02-05T05:34:07.044Z,9.93
2019-02-05T05:36:49.394Z,10.45
2019-02-05T05:39:22.540Z,10.40
2019-02-05T05:41:56.500Z,10.37
2019-02-05T05:44:32.021Z,11.47
2019-02-05T05:47:04.526Z,10.43
2019-02-05T05:49:35.912Z,11.40
2019-02-05T05:52:09.582Z,11.20
2019-02-05T05:54:43.613Z,10.35
2019-02-05T05:57:18.807Z,10.57
2019-02-05T05:59:52.076Z,10.18
2019-02-05T06:02:24.609Z,10.80
2019-02-05T06:04:56.283Z,11.40
2019-02-05T06:07:27.537Z,12.98
2019-02-05T06:10:00.552Z,12.87
2019-02-05T06:12:32.092Z,14.05
2019-02-05T06:15:07.613Z,19.30
2019-02-05T06:17:40.810Z,22.55
2019-02-05T06:20:16.143Z,15.90
2019-02-05T06:22:48.068Z,13.20
2019-02-05T06:25:19.352Z,12.50
2019-02-05T06:27:53.002Z,12.90
2019-02-05T06:30:26.750Z,12.20
2019-02-05T06:33:00.753Z,14.07
2019-02-05T06:35:32.150Z,11.17
2019-02-05T06:38:05.699Z,12.07
2019-02-05T06:40:37.804Z,12.60
2019-02-05T06:43:10.858Z,12.10
2019-02-05T06:45:44.967Z,13.37
2019-02-05T06:48:18.784Z,11.63
2019-02-05T06:50:52.684Z,16.77
2019-02-05T06:53:28.287Z,13.63
2019-02-05T06:56:02.235Z,12.90
2019-02-05T06:58:45.749Z,18.97
2019-02-05T07:01:07.792Z,33.00
2019-02-05T07:03:41.886Z,23.83
2019-02-05T07:06:15.720Z,27.93
2019-02-05T07:08:46.977Z,18.60
2019-02-05T07:11:18.245Z,13.50
2019-02-05T07:13:51.925Z,13.50
2019-02-05T07:16:25.364Z,13.27
2019-02-05T07:18:57.009Z,25.27
2019-02-05T07:21:30.988Z,16.10
2019-02-05T07:24:06.638Z,12.40
2019-02-05T07:26:38.132Z,12.77
2019-02-05T07:29:10.547Z,13.50
2019-02-05T07:31:43.574Z,13.37
2019-02-05T07:34:14.840Z,10.60
2019-02-05T07:36:47.186Z,11.37
2019-02-05T07:39:18.925Z,10.73
2019-02-05T07:41:53.098Z,10.60
2019-02-05T07:44:27.159Z,12.70
2019-02-05T07:47:01.256Z,12.80
2019-02-05T07:49:35.229Z,12.57
2019-02-05T07:52:06.606Z,12.13
2019-02-05T07:54:40.136Z,12.27
2019-02-05T07:57:14.124Z,12.67
2019-02-05T07:59:48.151Z,12.20
2019-02-05T08:02:22.286Z,11.78
2019-02-05T08:04:55.951Z,13.13
2019-02-05T08:07:28.810Z,13.13
2019-02-05T08:10:01.201Z,12.90
2019-02-05T08:12:32.641Z,12.17
2019-02-05T08:15:08.077Z,14.07
2019-02-05T08:17:41.235Z,14.30
2019-02-05T08:20:13.427Z,14.20
2019-02-05T08:22:47.187Z,13.43
2019-02-05T08:25:18.544Z,13.58
2019-02-05T08:27:49.914Z,13.50
2019-02-05T08:30:28.898Z,11.87
2019-02-05T08:33:00.182Z,11.53
2019-02-05T08:35:31.820Z,11.27
2019-02-05T08:38:05.715Z,12.13
2019-02-05T08:40:38.302Z,12.82
2019-02-05T08:43:10.401Z,12.00
2019-02-05T08:45:41.834Z,11.60
2019-02-05T08:48:15.433Z,12.27
2019-02-05T08:50:49.323Z,13.50
2019-02-05T08:53:20.585Z,11.30
2019-02-05T08:55:54.633Z,11.00
2019-02-05T08:58:31.044Z,11.75
2019-02-05T09:01:02.588Z,21.97
2019-02-05T09:03:35.453Z,17.48
2019-02-05T09:06:07.475Z,17.43
2019-02-05T09:08:41.459Z,19.42
2019-02-05T09:11:16.946Z,16.43
2019-02-05T09:13:49.371Z,13.90
2019-02-05T09:16:20.883Z,13.07
2019-02-05T09:18:54.522Z,14.33
2019-02-05T09:21:25.901Z,13.00
2019-02-05T09:23:59.573Z,11.40
2019-02-05T09:26:31.713Z,12.00
2019-02-05T09:29:04.532Z,12.40
2019-02-05T09:31:38.519Z,13.27
2019-02-05T09:34:11.521Z,11.80
2019-02-05T09:36:44.686Z,12.70
2019-02-05T09:39:16.559Z,12.43
2019-02-05T09:41:48.018Z,11.90
2019-02-05T09:44:19.415Z,11.30
2019-02-05T09:46:52.543Z,13.80
2019-02-05T09:49:28.241Z,12.85
2019-02-05T09:52:01.599Z,13.60
2019-02-05T09:54:35.566Z,14.53
2019-02-05T09:57:08.732Z,15.07
2019-02-05T09:59:45.378Z,13.90
2019-02-05T10:02:18.245Z,13.95
2019-02-05T10:04:50.644Z,13.93
2019-02-05T10:07:23.682Z,13.60
2019-02-05T10:09:57.739Z,13.17
2019-02-05T10:12:29.143Z,14.33
2019-02-05T10:15:00.413Z,14.80
2019-02-05T10:17:32.923Z,14.00
2019-02-05T10:20:05.809Z,13.20
2019-02-05T10:22:38.838Z,14.07
2019-02-05T10:25:13.247Z,15.18
2019-02-05T10:27:46.875Z,15.40
2019-02-05T10:30:29.005Z,15.70
2019-02-05T10:33:00.969Z,14.70
2019-02-05T10:35:32.240Z,13.58
2019-02-05T10:38:06.544Z,14.60
2019-02-05T10:40:39.782Z,14.13
2019-02-05T10:43:13.797Z,15.17
2019-02-05T10:45:47.908Z,15.17
2019-02-05T10:48:21.746Z,14.17
2019-02-05T10:50:55.867Z,14.67
2019-02-05T10:53:29.672Z,15.38
2019-02-05T10:56:01.117Z,14.37
2019-02-05T10:58:35.003Z,14.63
2019-02-05T11:01:09.140Z,14.90
2019-02-05T11:03:42.078Z,14.60
2019-02-05T11:06:14.044Z,14.50
2019-02-05T11:08:47.075Z,15.30
2019-02-05T11:11:20.977Z,17.10
2019-02-05T11:13:54.957Z,16.63
2019-02-05T11:16:28.982Z,15.77
2019-02-05T11:19:00.291Z,17.93
2019-02-05T11:21:32.642Z,18.60
2019-02-05T11:24:04.483Z,16.60
2019-02-05T11:26:36.808Z,16.53
2019-02-05T11:29:09.120Z,16.60
2019-02-05T11:31:40.987Z,17.70
2019-02-05T11:34:14.041Z,17.53
2019-02-05T11:36:45.395Z,18.13
2019-02-05T11:39:19.013Z,17.10
2019-02-05T11:41:50.255Z,17.10
2019-02-05T11:44:21.678Z,16.97
2019-02-05T11:46:55.038Z,16.97
2019-02-05T11:49:27.175Z,17.10
2019-02-05T11:52:00.159Z,17.13
2019-02-05T11:54:31.815Z,15.90
2019-02-05T11:57:05.260Z,17.50
2019-02-05T11:59:37.697Z,17.60
2019-02-05T12:02:10.356Z,15.77
2019-02-05T12:04:44.086Z,15.90
2019-02-05T12:07:15.341Z,16.33
2019-02-05T12:09:47.475Z,15.23
2019-02-05T12:12:19.309Z,15.27
2019-02-05T12:14:54.864Z,16.13
2019-02-05T12:17:28.359Z,14.00
2019-02-05T12:19:59.952Z,14.63
2019-02-05T12:22:32.149Z,13.40
2019-02-05T12:25:03.595Z,11.57
2019-02-05T12:27:36.442Z,14.00
2019-02-05T12:30:20.977Z,12.07
2019-02-05T12:32:54.322Z,13.27
2019-02-05T12:35:25.579Z,13.22
2019-02-05T12:37:57.776Z,13.80
2019-02-05T12:40:32.815Z,13.60
2019-02-05T12:43:04.985Z,14.87
2019-02-05T12:45:39.007Z,15.23
2019-02-05T12:48:11.467Z,15.43
2019-02-05T12:50:43.528Z,15.53
2019-02-05T12:53:16.473Z,16.17
2019-02-05T12:55:50.472Z,13.93
2019-02-05T12:58:24.505Z,14.80
2019-02-05T13:01:01.070Z,14.83
2019-02-05T13:03:31.855Z,14.37
2019-02-05T13:06:04.199Z,14.47
2019-02-05T13:08:37.448Z,14.13
2019-02-05T13:11:11.559Z,15.80
2019-02-05T13:13:43.417Z,14.10
2019-02-05T13:16:16.407Z,15.70
2019-02-05T13:18:51.959Z,15.47
2019-02-05T13:21:24.426Z,14.00
2019-02-05T13:23:55.845Z,15.38
2019-02-05T13:26:29.672Z,15.73
2019-02-05T13:29:03.614Z,15.87
2019-02-05T13:31:35.464Z,15.10
2019-02-05T13:34:08.662Z,14.80
2019-02-05T13:36:41.573Z,15.77
2019-02-05T13:39:13.700Z,15.30
2019-02-05T13:41:47.513Z,14.90
2019-02-05T13:44:18.742Z,16.30
2019-02-05T13:46:50.069Z,14.17
2019-02-05T13:49:23.595Z,15.80
2019-02-05T13:51:57.562Z,16.90
2019-02-05T13:54:33.107Z,17.60
2019-02-05T13:57:05.589Z,15.80
2019-02-05T13:59:38.747Z,15.57
2019-02-05T14:02:10.572Z,15.70
2019-02-05T14:04:41.855Z,16.83
2019-02-05T14:07:15.719Z,15.70
2019-02-05T14:09:47.034Z,17.85
2019-02-05T14:12:21.948Z,17.57
2019-02-05T14:14:54.711Z,17.43
2019-02-05T14:17:28.805Z,17.63
2019-02-05T14:20:01.710Z,16.87
2019-02-05T14:22:33.262Z,17.83
2019-02-05T14:25:08.884Z,17.00
2019-02-05T14:27:40.859Z,16.20
2019-02-05T14:30:17.514Z,17.10
2019-02-05T14:32:50.865Z,17.73
2019-02-05T14:35:24.426Z,17.60
2019-02-05T14:37:56.795Z,17.90
2019-02-05T14:40:30.932Z,16.47
2019-02-05T14:43:06.173Z,16.37
2019-02-05T14:45:38.454Z,16.85
2019-02-05T14:48:10.537Z,16.67
2019-02-05T14:50:44.622Z,15.43
2019-02-05T14:53:18.081Z,16.47
2019-02-05T14:55:51.912Z,16.63
2019-02-05T14:58:25.935Z,15.83
2019-02-05T15:00:59.933Z,17.07
2019-02-05T15:03:31.963Z,16.53
2019-02-05T15:06:05.194Z,17.73
2019-02-05T15:08:36.456Z,16.87
2019-02-05T15:11:10.280Z,18.20
2019-02-05T15:13:44.165Z,22.73
2019-02-05T15:16:17.040Z,20.43
2019-02-05T15:18:48.999Z,20.63
2019-02-05T15:21:23.018Z,19.27
2019-02-05T15:23:55.145Z,18.85
2019-02-05T15:26:28.033Z,18.13
2019-02-05T15:29:03.633Z,18.40
2019-02-05T15:31:35.047Z,19.33
2019-02-05T15:34:34.195Z,17.95
2019-02-05T15:37:08.272Z,18.37
2019-02-05T15:39:42.388Z,19.00
2019-02-05T15:42:16.204Z,18.60
2019-02-05T15:44:49.878Z,20.90
2019-02-05T15:47:23.474Z,54.60
2019-02-05T15:50:05.843Z,19.70
2019-02-05T15:52:32.020Z,20.37
2019-02-05T15:55:07.286Z,52.00
2019-02-05T15:57:39.780Z,20.50
2019-02-05T16:00:15.096Z,19.27
2019-02-05T16:02:47.456Z,35.43
2019-02-05T16:05:21.295Z,20.90
2019-02-05T16:07:55.444Z,20.87
2019-02-05T16:10:30.885Z,21.20
2019-02-05T16:13:03.463Z,24.30
2019-02-05T16:15:37.354Z,23.50
2019-02-05T16:18:11.496Z,24.53
2019-02-05T16:20:44.418Z,29.20
2019-02-05T16:23:17.422Z,27.80
2019-02-05T16:25:50.586Z,27.17
2019-02-05T16:28:21.870Z,27.77
2019-02-05T16:30:56.487Z,27.35
2019-02-05T16:33:28.641Z,25.70
2019-02-05T16:36:02.511Z,24.53
2019-02-05T16:38:35.529Z,27.17
2019-02-05T16:41:07.496Z,24.90
2019-02-05T16:43:39.410Z,25.70
2019-02-05T16:46:12.604Z,26.90
2019-02-05T16:48:44.415Z,26.27
2019-02-05T16:51:15.676Z,26.80
2019-02-05T16:53:46.995Z,28.23
2019-02-05T16:56:21.822Z,26.00
2019-02-05T16:58:54.441Z,26.55
2019-02-05T17:01:28.444Z,26.37
2019-02-05T17:04:00.507Z,26.57
2019-02-05T17:06:33.820Z,26.37
2019-02-05T17:09:14.939Z,25.55
2019-02-05T17:11:48.740Z,26.43
2019-02-05T17:14:21.674Z,25.20
2019-02-05T17:16:53.646Z,24.93
2019-02-05T17:19:26.273Z,25.35
2019-02-05T17:22:00.490Z,23.20
2019-02-05T17:24:32.256Z,35.00
2019-02-05T17:27:04.750Z,29.90
2019-02-05T17:29:36.820Z,34.70
2019-02-05T17:32:09.726Z,25.77
2019-02-05T17:34:41.648Z,27.40
2019-02-05T17:37:14.744Z,25.33
2019-02-05T17:39:48.833Z,26.20
2019-02-05T17:42:20.092Z,26.63
2019-02-05T17:44:53.587Z,27.40
2019-02-05T17:47:27.710Z,27.58
2019-02-05T17:50:01.718Z,27.30
2019-02-05T17:52:32.978Z,27.50
2019-02-05T17:55:07.907Z,28.03
2019-02-05T17:57:41.030Z,26.50
2019-02-05T18:00:16.354Z,28.40
2019-02-05T18:02:51.622Z,30.68
2019-02-05T18:05:22.735Z,29.33
2019-02-05T18:07:56.843Z,29.87
2019-02-05T18:10:30.819Z,31.67
2019-02-05T18:13:04.846Z,33.80
2019-02-05T18:15:38.810Z,30.30
2019-02-05T18:18:10.172Z,30.37
2019-02-05T18:20:43.921Z,30.13
2019-02-05T18:23:17.816Z,29.25
2019-02-05T18:25:53.248Z,32.00
2019-02-05T18:28:26.022Z,31.93
2019-02-05T18:31:01.670Z,31.30
2019-02-05T18:33:32.972Z,31.10
2019-02-05T18:36:08.544Z,32.37
2019-02-05T18:38:41.635Z,32.50
2019-02-05T18:41:15.240Z,30.13
2019-02-05T18:43:49.019Z,31.97
2019-02-05T18:46:22.914Z,30.47
2019-02-05T18:49:04.602Z,35.40
2019-02-05T18:51:31.014Z,33.70
2019-02-05T18:54:02.352Z,36.53
2019-02-05T18:56:35.970Z,31.80
2019-02-05T18:59:08.143Z,32.07
2019-02-05T19:01:41.076Z,32.80
2019-02-05T19:04:15.267Z,33.30
2019-02-05T19:06:48.964Z,33.93
2019-02-05T19:09:22.775Z,32.73
2019-02-05T19:11:54.044Z,32.97
2019-02-05T19:14:28.425Z,32.50
2019-02-05T19:17:01.415Z,32.20
2019-02-05T19:19:34.422Z,32.97
2019-02-05T19:22:06.394Z,32.00
2019-02-05T19:25:02.440Z,30.17
2019-02-05T19:27:38.052Z,31.10
2019-02-05T19:30:13.605Z,32.80
2019-02-05T19:32:46.579Z,32.30
2019-02-05T19:35:20.309Z,31.70
2019-02-05T19:37:54.276Z,28.00
2019-02-05T19:40:28.235Z,30.23
2019-02-05T19:43:05.899Z,31.15
2019-02-05T19:45:57.146Z,28.97
2019-02-05T19:48:49.050Z,29.40
2019-02-05T19:51:23.803Z,30.70
2019-02-05T19:53:57.728Z,30.60
2019-02-05T19:56:38.175Z,30.90
2019-02-05T19:59:05.455Z,31.55
2019-02-05T20:01:38.402Z,33.10
2019-02-05T20:04:12.504Z,30.03
2019-02-05T20:06:44.167Z,32.40
2019-02-05T20:09:17.330Z,31.57
2019-02-05T20:11:52.828Z,32.30
2019-02-05T20:14:25.348Z,33.53
2019-02-05T20:16:59.443Z,34.30
2019-02-05T20:19:31.395Z,32.48
2019-02-05T20:22:04.743Z,32.30
2019-02-05T20:24:38.468Z,35.40
2019-02-05T20:27:12.462Z,35.77
2019-02-05T20:29:48.073Z,40.60
2019-02-05T20:32:20.387Z,35.90
2019-02-05T20:34:54.328Z,42.33
2019-02-05T20:37:26.535Z,39.90
2019-02-05T20:39:59.534Z,40.40
2019-02-05T20:42:31.799Z,42.57
2019-02-05T20:45:03.558Z,41.73
2019-02-05T20:47:35.427Z,43.00
2019-02-05T20:50:12.712Z,41.87
2019-02-05T20:52:44.693Z,41.07
2019-02-05T20:55:16.778Z,43.73
2019-02-05T20:57:50.897Z,43.97
2019-02-05T21:00:24.695Z,43.55
2019-02-05T21:02:56.702Z,42.58
2019-02-05T21:05:29.647Z,43.92
2019-02-05T21:08:03.627Z,46.33
2019-02-05T21:10:35.575Z,42.57
2019-02-05T21:13:07.719Z,44.43
2019-02-05T21:15:39.168Z,44.23
2019-02-05T21:18:10.486Z,43.87
2019-02-05T21:20:43.643Z,43.70
2019-02-05T21:23:16.354Z,45.43
2019-02-05T21:25:48.971Z,45.20
2019-02-05T21:28:20.977Z,47.07
2019-02-05T21:30:53.813Z,44.87
2019-02-05T21:33:27.716Z,46.98
2019-02-05T21:36:03.259Z,44.50
2019-02-05T21:38:35.796Z,46.60
2019-02-05T21:41:10.083Z,44.07
2019-02-05T21:43:43.684Z,47.13
2019-02-05T21:46:17.710Z,44.57
2019-02-05T21:48:51.747Z,46.37
2019-02-05T21:51:23.031Z,47.15
2019-02-05T21:53:54.306Z,43.67
2019-02-05T21:56:27.759Z,45.87
2019-02-05T21:59:03.303Z,47.13
2019-02-05T22:01:35.954Z,45.73
2019-02-05T22:04:10.317Z,46.33
2019-02-05T22:06:43.681Z,44.20
2019-02-05T22:09:17.903Z,47.33
2019-02-05T22:11:51.881Z,46.63
2019-02-05T22:14:24.898Z,45.73
2019-02-05T22:17:00.462Z,44.03
2019-02-05T22:19:32.446Z,48.63
2019-02-05T22:22:03.929Z,46.43
2019-02-05T22:24:35.476Z,45.10
2019-02-05T22:27:08.963Z,47.10
2019-02-05T22:29:43.050Z,49.90
2019-02-05T22:32:16.899Z,44.43
2019-02-05T22:34:50.956Z,51.90
2019-02-05T22:37:25.087Z,48.98
2019-02-05T22:39:56.370Z,49.50
2019-02-05T22:42:27.702Z,49.50
2019-02-05T22:45:02.306Z,51.30
2019-02-05T22:47:36.197Z,49.93
2019-02-05T22:50:11.384Z,48.67
2019-02-05T22:52:46.298Z,48.43
2019-02-05T22:55:20.033Z,47.30
2019-02-05T22:57:54.027Z,49.03
2019-02-05T23:01:05.044Z,48.65
2019-02-05T23:03:43.556Z,49.33
2019-02-05T23:06:44.975Z,48.80
2019-02-05T23:09:29.436Z,47.33
2019-02-05T23:12:35.662Z,45.93
2019-02-05T23:15:21.388Z,44.90
2019-02-05T23:17:55.313Z,43.35
2019-02-05T23:20:26.878Z,44.25
2019-02-05T23:23:01.046Z,44.40
2019-02-05T23:25:32.519Z,44.23
2019-02-05T23:28:05.504Z,43.33
2019-02-05T23:30:39.412Z,46.30
2019-02-05T23:33:13.364Z,40.87
2019-02-05T23:35:45.095Z,42.47
2019-02-05T23:38:18.057Z,40.20
2019-02-05T23:40:49.467Z,43.23
2019-02-05T23:43:23.221Z,41.53
2019-02-05T23:46:01.317Z,39.07
2019-02-05T23:48:32.474Z,41.83
2019-02-05T23:51:04.472Z,43.52
2019-02-05T23:53:36.369Z,42.40
2019-02-05T23:56:09.393Z,43.92
2019-02-05T23:58:40.745Z,45.50
